Time;durP1;ratioP1;P1;durP2;ratioP2;P2;SDS_P1;SDS_P2;PMS_P1;PMS_P2;Temp;Humidity;BMP_temperature;BMP_pressure;BME280_temperature;BME280_humidity;BME280_pressure;Samples;Min_cycle;Max_cycle;Signal;HPM_P1;HPM_P2
2021/09/30 00:00:01;;;;;;;2.08;1.00;;;;;;;;;;5061658;28;20185;-94
2021/09/30 00:02:27;;;;;;;2.13;1.00;;;;;;;;;;5058960;28;20584;-94
2021/09/30 00:04:53;;;;;;;1.23;1.13;;;;;;;;;;5063452;28;20195;-91
2021/09/30 00:07:19;;;;;;;3.00;1.38;;;;;;;;;;5065144;28;20657;-95
2021/09/30 00:09:47;;;;;;;2.30;1.45;;;;;;;;;;5064907;28;20181;-94
2021/09/30 00:12:42;;;;;;;2.92;1.38;;;;;;;;;;5060587;28;20182;-92
2021/09/30 00:15:37;;;;;;;4.00;1.65;;;;;;;;;;5063025;28;20209;-94
2021/09/30 00:32:27;;;;;;;3.17;1.23;;;;;;;;;;5065090;28;20201;-92
2021/09/30 00:40:14;;;;;;;3.60;1.33;;;;;;;;;;5007272;28;20231;-94
2021/09/30 00:48:00;;;;;;;3.42;1.63;;;;;;;;;;5006182;28;20290;-92
2021/09/30 00:50:34;;;;;;;2.53;1.63;;;;;;;;;;4995624;28;20224;-94
2021/09/30 01:18:26;;;;;;;2.85;1.20;;;;;;;;;;5044845;28;20183;-93
2021/09/30 03:00:28;;;;;;;1.63;1.00;;;;;;;;;;5048169;28;20196;-93
2021/09/30 03:02:55;;;;;;;3.75;1.40;;;;;;;;;;5047149;28;20249;-93
2021/09/30 03:05:22;;;;;;;2.33;1.30;;;;;;;;;;5027788;28;20184;-93
2021/09/30 03:07:49;;;;;;;1.88;1.20;;;;;;;;;;5044016;28;20212;-93
2021/09/30 03:10:16;;;;;;;5.20;1.35;;;;;;;;;;5024821;28;20246;-93
2021/09/30 03:12:42;;;;;;;3.53;1.40;;;;;;;;;;5048258;28;20194;-92
2021/09/30 03:15:28;;;;;;;2.85;1.40;;;;;;;;;;5031276;28;20215;-94
2021/09/30 03:23:05;;;;;;;3.58;1.33;;;;;;;;;;5045287;28;20235;-93
2021/09/30 03:25:32;;;;;;;3.20;1.50;;;;;;;;;;5034436;28;20238;-93
2021/09/30 03:27:58;;;;;;;7.78;1.60;;;;;;;;;;5038146;28;20182;-93
2021/09/30 03:30:27;;;;;;;2.00;1.10;;;;;;;;;;5046526;28;20618;-93
2021/09/30 03:32:53;;;;;;;4.25;1.20;;;;;;;;;;5041007;28;20178;-92
2021/09/30 03:35:19;;;;;;;2.60;1.30;;;;;;;;;;5023939;28;20173;-92
2021/09/30 03:37:45;;;;;;;3.95;1.52;;;;;;;;;;5021098;28;20236;-90
2021/09/30 03:40:12;;;;;;;3.65;1.65;;;;;;;;;;5068201;28;20537;-91
2021/09/30 03:42:38;;;;;;;2.20;1.10;;;;;;;;;;5063961;28;20196;-91
2021/09/30 03:45:04;;;;;;;2.05;1.38;;;;;;;;;;5073775;28;20180;-93
2021/09/30 03:47:30;;;;;;;4.47;1.40;;;;;;;;;;5076534;28;20690;-94
2021/09/30 03:49:57;;;;;;;2.08;1.50;;;;;;;;;;5062823;28;20203;-93
2021/09/30 03:59:47;;;;;;;2.53;1.20;;;;;;;;;;5066474;28;20182;-92
2021/09/30 04:02:13;;;;;;;2.15;1.25;;;;;;;;;;5064589;28;20184;-93
2021/09/30 04:04:39;;;;;;;2.80;1.10;;;;;;;;;;5060358;28;20684;-94
2021/09/30 04:07:08;;;;;;;4.72;1.20;;;;;;;;;;5057198;28;20180;-92
2021/09/30 04:09:36;;;;;;;2.80;1.60;;;;;;;;;;5067194;28;20181;-92
2021/09/30 04:12:04;;;;;;;1.98;1.20;;;;;;;;;;5065867;28;20196;-93
2021/09/30 04:14:30;;;;;;;4.88;1.50;;;;;;;;;;5065470;28;20283;-93
2021/09/30 04:16:56;;;;;;;2.47;1.50;;;;;;;;;;5062807;28;20268;-93
2021/09/30 04:19:23;;;;;;;3.15;1.13;;;;;;;;;;5064519;28;20182;-92
2021/09/30 04:21:49;;;;;;;1.90;1.10;;;;;;;;;;5062454;28;20174;-93
2021/09/30 04:24:16;;;;;;;6.07;1.50;;;;;;;;;;5059423;28;20185;-92
2021/09/30 04:26:42;;;;;;;4.82;1.33;;;;;;;;;;5059263;28;20604;-90
2021/09/30 04:29:08;;;;;;;3.55;1.40;;;;;;;;;;5065293;28;20216;-93
2021/09/30 04:31:35;;;;;;;1.65;1.52;;;;;;;;;;5057065;28;20187;-92
2021/09/30 04:34:01;;;;;;;3.97;1.20;;;;;;;;;;5068868;28;20634;-93
2021/09/30 04:36:27;;;;;;;3.72;1.17;;;;;;;;;;5064623;28;20187;-93
2021/09/30 04:38:54;;;;;;;4.10;1.33;;;;;;;;;;5071096;28;20232;-92
2021/09/30 04:41:21;;;;;;;3.38;1.45;;;;;;;;;;5067321;28;20182;-93
2021/09/30 04:43:47;;;;;;;4.72;1.58;;;;;;;;;;5061355;28;20181;-93
2021/09/30 04:46:14;;;;;;;2.35;1.27;;;;;;;;;;5069049;28;20186;-93
2021/09/30 04:48:40;;;;;;;2.63;1.25;;;;;;;;;;5061974;28;20259;-92
2021/09/30 04:51:06;;;;;;;2.72;1.30;;;;;;;;;;5061608;28;20209;-93
2021/09/30 04:53:33;;;;;;;2.40;1.10;;;;;;;;;;5058061;28;20200;-93
2021/09/30 04:55:58;;;;;;;2.50;1.20;;;;;;;;;;5062548;28;20192;-93
2021/09/30 04:58:24;;;;;;;3.72;1.35;;;;;;;;;;5050249;28;20220;-92
2021/09/30 05:00:50;;;;;;;2.75;1.30;;;;;;;;;;5061205;28;20173;-94
2021/09/30 05:03:17;;;;;;;6.60;1.73;;;;;;;;;;5071327;28;20191;-93
2021/09/30 05:05:42;;;;;;;4.68;1.60;;;;;;;;;;5068750;28;20222;-92
2021/09/30 05:08:09;;;;;;;3.95;1.30;;;;;;;;;;5047930;28;20182;-93
2021/09/30 05:10:36;;;;;;;2.05;1.30;;;;;;;;;;5054063;28;20257;-93
2021/09/30 05:13:08;;;;;;;4.10;1.35;;;;;;;;;;5071691;28;20672;-93
2021/09/30 05:15:36;;;;;;;3.00;1.27;;;;;;;;;;5063477;28;20268;-92
2021/09/30 05:18:02;;;;;;;3.00;1.45;;;;;;;;;;5066355;28;20208;-92
2021/09/30 05:20:29;;;;;;;4.30;1.30;;;;;;;;;;5063771;28;20191;-93
2021/09/30 05:22:55;;;;;;;5.03;1.67;;;;;;;;;;5053237;28;20181;-93
2021/09/30 05:25:21;;;;;;;3.08;1.23;;;;;;;;;;5056890;28;20204;-91
2021/09/30 05:27:47;;;;;;;3.75;1.55;;;;;;;;;;5071042;28;20173;-92
2021/09/30 05:30:13;;;;;;;2.67;1.20;;;;;;;;;;5065291;28;20185;-92
2021/09/30 05:32:39;;;;;;;2.28;1.10;;;;;;;;;;5056081;28;20666;-92
2021/09/30 05:35:06;;;;;;;2.65;1.30;;;;;;;;;;5057863;28;20195;-92
2021/09/30 05:37:32;;;;;;;3.78;1.30;;;;;;;;;;5064453;28;20288;-91
2021/09/30 05:39:58;;;;;;;5.85;1.40;;;;;;;;;;5063265;28;20288;-92
2021/09/30 05:42:24;;;;;;;5.63;1.27;;;;;;;;;;5064211;28;20212;-88
2021/09/30 05:44:51;;;;;;;2.15;1.40;;;;;;;;;;5056519;28;20200;-91
2021/09/30 05:47:17;;;;;;;6.97;1.58;;;;;;;;;;5065584;28;20211;-90
2021/09/30 05:49:43;;;;;;;2.38;1.00;;;;;;;;;;5048924;28;20196;-91
2021/09/30 05:52:09;;;;;;;4.40;1.60;;;;;;;;;;5053386;28;20178;-89
2021/09/30 05:54:35;;;;;;;3.90;1.45;;;;;;;;;;5064754;28;20239;-91
2021/09/30 05:57:01;;;;;;;4.03;1.77;;;;;;;;;;5065773;28;20212;-91
2021/09/30 05:59:27;;;;;;;2.53;1.67;;;;;;;;;;5061734;28;20332;-90
2021/09/30 06:10:18;;;;;;;2.50;1.42;;;;;;;;;;5067947;28;20268;-89
2021/09/30 06:13:07;;;;;;;2.28;1.35;;;;;;;;;;5070086;28;20181;-91
2021/09/30 06:15:36;;;;;;;1.83;1.60;;;;;;;;;;5075372;28;20189;-92
2021/09/30 06:18:02;;;;;;;3.85;1.25;;;;;;;;;;5070042;28;20212;-91
2021/09/30 06:20:29;;;;;;;2.75;1.60;;;;;;;;;;5071752;28;21036;-91
2021/09/30 06:22:55;;;;;;;3.83;1.30;;;;;;;;;;5068738;28;20185;-90
2021/09/30 06:25:22;;;;;;;5.18;1.38;;;;;;;;;;5058696;28;20209;-91
2021/09/30 06:27:48;;;;;;;3.30;1.58;;;;;;;;;;5063296;28;20218;-90
2021/09/30 06:30:14;;;;;;;3.45;1.60;;;;;;;;;;5063626;28;20177;-90
2021/09/30 06:32:40;;;;;;;2.50;1.50;;;;;;;;;;5060796;28;20192;-90
2021/09/30 06:35:06;;;;;;;5.45;1.63;;;;;;;;;;5069482;28;20560;-90
2021/09/30 06:37:32;;;;;;;6.10;1.70;;;;;;;;;;5063664;28;20201;-93
2021/09/30 06:39:59;;;;;;;6.82;1.80;;;;;;;;;;5049981;28;20209;-92
2021/09/30 06:42:25;;;;;;;3.90;1.38;;;;;;;;;;5027231;28;20250;-92
2021/09/30 06:44:51;;;;;;;3.78;1.33;;;;;;;;;;5034310;28;20248;-89
2021/09/30 06:47:17;;;;;;;3.35;1.60;;;;;;;;;;5031492;28;20357;-88
2021/09/30 06:49:43;;;;;;;2.75;1.52;;;;;;;;;;5023310;28;20194;-89
2021/09/30 06:52:09;;;;;;;2.58;1.30;;;;;;;;;;5022692;28;20201;-86
2021/09/30 06:54:35;;;;;;;2.22;1.60;;;;;;;;;;5024965;28;20186;-88
2021/09/30 06:57:01;;;;;;;2.20;1.52;;;;;;;;;;5022976;28;20216;-92
2021/09/30 06:59:34;;;;;;;3.20;1.17;;;;;;;;;;5045140;28;20188;-87
2021/09/30 07:02:06;;;;;;;3.70;1.50;;;;;;;;;;5028799;28;20189;-87
2021/09/30 07:04:33;;;;;;;2.80;1.75;;;;;;;;;;5018778;28;20178;-86
2021/09/30 07:06:59;;;;;;;2.88;1.63;;;;;;;;;;5044318;28;20210;-88
2021/09/30 07:09:25;;;;;;;7.70;2.50;;;;;;;;;;5023049;28;20229;-88
2021/09/30 07:11:51;;;;;;;4.20;2.10;;;;;;;;;;5041331;28;20240;-87
2021/09/30 07:14:17;;;;;;;3.67;1.70;;;;;;;;;;5025944;28;20440;-87
2021/09/30 07:16:43;;;;;;;4.60;1.30;;;;;;;;;;5025815;28;20194;-85
2021/09/30 07:19:09;;;;;;;3.72;1.75;;;;;;;;;;5038528;28;20183;-86
2021/09/30 07:21:35;;;;;;;3.53;1.45;;;;;;;;;;5045375;28;20204;-84
2021/09/30 07:24:01;;;;;;;3.20;1.60;;;;;;;;;;5027441;28;20210;-85
2021/09/30 07:26:27;;;;;;;3.65;1.60;;;;;;;;;;5044743;28;20178;-84
2021/09/30 07:28:53;;;;;;;3.10;1.92;;;;;;;;;;5016728;28;20209;-85
2021/09/30 07:31:20;;;;;;;4.05;2.55;;;;;;;;;;5024830;28;20187;-85
2021/09/30 07:33:46;;;;;;;2.78;1.40;;;;;;;;;;5023796;28;20200;-86
2021/09/30 07:36:13;;;;;;;8.00;2.05;;;;;;;;;;5027416;28;20186;-85
2021/09/30 07:38:40;;;;;;;8.07;1.83;;;;;;;;;;5031838;28;20231;-84
2021/09/30 07:41:06;;;;;;;4.65;1.98;;;;;;;;;;5063324;28;20226;-83
2021/09/30 07:43:32;;;;;;;2.00;1.70;;;;;;;;;;5056257;28;21017;-82
2021/09/30 07:45:58;;;;;;;3.33;1.27;;;;;;;;;;5059013;28;20527;-82
2021/09/30 07:48:24;;;;;;;1.73;1.30;;;;;;;;;;5065553;28;20196;-83
2021/09/30 07:50:50;;;;;;;4.45;1.92;;;;;;;;;;5066441;28;20181;-83
2021/09/30 07:53:16;;;;;;;3.47;1.60;;;;;;;;;;5055441;28;20181;-84
2021/09/30 07:55:42;;;;;;;5.65;1.50;;;;;;;;;;5066576;28;20236;-83
2021/09/30 07:58:09;;;;;;;8.02;1.70;;;;;;;;;;5064099;28;20201;-84
2021/09/30 08:00:40;;;;;;;4.97;1.83;;;;;;;;;;5078445;28;20713;-84
2021/09/30 08:03:06;;;;;;;4.47;1.63;;;;;;;;;;5059692;28;20192;-84
2021/09/30 08:05:35;;;;;;;7.47;1.70;;;;;;;;;;5058235;28;20181;-84
2021/09/30 08:08:02;;;;;;;8.00;1.90;;;;;;;;;;5054911;28;20180;-83
2021/09/30 08:10:28;;;;;;;3.58;1.75;;;;;;;;;;5067947;28;20247;-83
2021/09/30 08:12:54;;;;;;;9.13;2.50;;;;;;;;;;5064229;28;20185;-85
2021/09/30 08:15:20;;;;;;;3.33;1.40;;;;;;;;;;5056848;28;20189;-84
2021/09/30 08:17:46;;;;;;;6.50;2.20;;;;;;;;;;5055406;28;20953;-84
2021/09/30 08:20:13;;;;;;;5.13;2.80;;;;;;;;;;5060712;28;20209;-84
2021/09/30 08:22:39;;;;;;;4.65;1.67;;;;;;;;;;5057747;28;20223;-86
2021/09/30 08:25:05;;;;;;;7.72;2.10;;;;;;;;;;5058050;28;20180;-85
2021/09/30 08:27:31;;;;;;;3.53;1.48;;;;;;;;;;5066661;28;20188;-86
2021/09/30 08:29:57;;;;;;;5.65;2.05;;;;;;;;;;5063939;28;20181;-86
2021/09/30 08:32:23;;;;;;;2.58;1.52;;;;;;;;;;5065905;28;20262;-85
2021/09/30 08:34:49;;;;;;;2.17;1.40;;;;;;;;;;5062881;28;20235;-84
2021/09/30 08:37:15;;;;;;;2.83;1.63;;;;;;;;;;5066511;28;20607;-85
2021/09/30 08:39:41;;;;;;;2.17;1.38;;;;;;;;;;5067157;28;20221;-84
2021/09/30 08:42:08;;;;;;;4.83;1.30;;;;;;;;;;5070486;28;20181;-85
2021/09/30 08:44:34;;;;;;;2.78;1.25;;;;;;;;;;5064015;28;20439;-85
2021/09/30 08:47:04;;;;;;;4.90;1.90;;;;;;;;;;5067381;28;20180;-85
2021/09/30 08:49:30;;;;;;;4.40;1.50;;;;;;;;;;5061718;28;20170;-85
2021/09/30 08:51:56;;;;;;;4.65;1.95;;;;;;;;;;5069439;28;20173;-85
2021/09/30 08:54:23;;;;;;;2.30;1.52;;;;;;;;;;5059332;28;20189;-84
2021/09/30 08:56:49;;;;;;;6.25;1.40;;;;;;;;;;5064804;28;20204;-85
2021/09/30 08:59:16;;;;;;;10.68;2.05;;;;;;;;;;5065513;28;20199;-85
2021/09/30 09:02:01;;;;;;;3.72;1.42;;;;;;;;;;5060811;28;20177;-84
2021/09/30 09:04:27;;;;;;;9.63;1.60;;;;;;;;;;5068561;28;20188;-85
2021/09/30 09:06:53;;;;;;;5.33;1.57;;;;;;;;;;5062714;28;20174;-85
2021/09/30 09:09:23;;;;;;;5.03;2.10;;;;;;;;;;5063056;28;20878;-86
2021/09/30 09:11:49;;;;;;;4.55;1.60;;;;;;;;;;5064143;28;20441;-84
2021/09/30 09:14:26;;;;;;;2.30;1.58;;;;;;;;;;5055128;28;20246;-85
2021/09/30 09:16:59;;;;;;;4.50;1.20;;;;;;;;;;5053170;28;20204;-85
2021/09/30 09:19:34;;;;;;;6.20;1.60;;;;;;;;;;5052725;28;20202;-85
2021/09/30 09:22:05;;;;;;;4.70;1.63;;;;;;;;;;5062358;28;20610;-84
2021/09/30 09:24:31;;;;;;;4.90;1.10;;;;;;;;;;5059911;28;20217;-85
2021/09/30 09:27:00;;;;;;;4.00;1.40;;;;;;;;;;5060151;28;20180;-85
2021/09/30 09:29:29;;;;;;;1.90;1.00;;;;;;;;;;5065960;28;20181;-83
2021/09/30 09:31:55;;;;;;;2.65;1.20;;;;;;;;;;5063520;28;20208;-84
2021/09/30 09:34:30;;;;;;;3.58;1.00;;;;;;;;;;5061231;28;20189;-84
2021/09/30 09:37:17;;;;;;;2.15;1.23;;;;;;;;;;5073066;28;20166;-83
2021/09/30 09:39:43;;;;;;;4.35;1.50;;;;;;;;;;5065938;28;20220;-86
2021/09/30 09:42:14;;;;;;;4.20;1.25;;;;;;;;;;5060228;28;20194;-85
2021/09/30 09:44:50;;;;;;;3.67;1.63;;;;;;;;;;5057144;28;20184;-85
2021/09/30 09:47:24;;;;;;;1.85;1.10;;;;;;;;;;5053437;28;20273;-87
2021/09/30 09:50:08;;;;;;;3.55;1.30;;;;;;;;;;5055574;28;20213;-86
2021/09/30 09:52:49;;;;;;;1.90;0.93;;;;;;;;;;5060999;28;20215;-88
2021/09/30 09:55:16;;;;;;;2.58;1.05;;;;;;;;;;5060894;28;20208;-87
2021/09/30 09:57:49;;;;;;;5.15;1.10;;;;;;;;;;5061400;28;20423;-86
2021/09/30 10:00:16;;;;;;;2.00;0.90;;;;;;;;;;5065543;28;20212;-86
2021/09/30 10:02:42;;;;;;;4.40;1.45;;;;;;;;;;5065043;28;20197;-87
2021/09/30 10:05:08;;;;;;;3.30;1.27;;;;;;;;;;5056942;28;20203;-87
2021/09/30 10:07:35;;;;;;;3.53;1.02;;;;;;;;;;5056252;28;20189;-84
2021/09/30 10:10:01;;;;;;;5.43;1.40;;;;;;;;;;5066593;28;20174;-84
2021/09/30 10:12:27;;;;;;;2.75;1.25;;;;;;;;;;5066360;28;20189;-82
2021/09/30 10:14:53;;;;;;;8.27;2.17;;;;;;;;;;5067939;28;20213;-81
2021/09/30 10:17:20;;;;;;;5.15;1.70;;;;;;;;;;5058680;28;20759;-82
2021/09/30 10:19:46;;;;;;;1.30;1.00;;;;;;;;;;5052313;28;20249;-82
2021/09/30 10:22:12;;;;;;;5.13;1.48;;;;;;;;;;5065907;28;20180;-82
2021/09/30 10:24:39;;;;;;;2.35;0.95;;;;;;;;;;5059354;28;20209;-81
2021/09/30 10:27:06;;;;;;;2.30;1.00;;;;;;;;;;5070221;28;20252;-82
2021/09/30 10:29:46;;;;;;;3.75;0.95;;;;;;;;;;5069695;28;20186;-84
2021/09/30 10:32:15;;;;;;;4.93;0.93;;;;;;;;;;5055248;28;20206;-82
2021/09/30 10:34:45;;;;;;;2.05;0.93;;;;;;;;;;5057601;28;20190;-81
2021/09/30 10:37:17;;;;;;;8.85;1.77;;;;;;;;;;5069787;28;20470;-82
2021/09/30 10:39:43;;;;;;;3.88;1.30;;;;;;;;;;5068823;28;20305;-83
2021/09/30 10:42:29;;;;;;;8.30;2.00;;;;;;;;;;5063747;28;20727;-83
2021/09/30 10:45:12;;;;;;;1.58;1.33;;;;;;;;;;5068123;28;20177;-83
2021/09/30 10:47:38;;;;;;;1.83;1.30;;;;;;;;;;5060912;28;20181;-83
2021/09/30 10:50:04;;;;;;;5.03;1.33;;;;;;;;;;5067287;28;20641;-82
2021/09/30 10:52:56;;;;;;;2.45;0.90;;;;;;;;;;5063539;28;20207;-82
2021/09/30 10:55:22;;;;;;;1.50;1.05;;;;;;;;;;5053264;28;20192;-83
2021/09/30 10:57:52;;;;;;;4.80;1.00;;;;;;;;;;5066168;28;20271;-82
2021/09/30 11:00:18;;;;;;;1.98;1.10;;;;;;;;;;5062741;28;20438;-82
2021/09/30 11:03:00;;;;;;;5.87;0.93;;;;;;;;;;5065408;28;20176;-81
2021/09/30 11:05:27;;;;;;;1.65;0.88;;;;;;;;;;5061273;28;20467;-80
2021/09/30 11:08:11;;;;;;;3.28;1.05;;;;;;;;;;5061115;28;20251;-82
2021/09/30 11:10:37;;;;;;;2.13;1.20;;;;;;;;;;5062603;28;20192;-81
2021/09/30 11:13:16;;;;;;;5.33;1.10;;;;;;;;;;5069202;28;20170;-81
2021/09/30 11:16:02;;;;;;;1.90;1.00;;;;;;;;;;5053221;28;20430;-80
2021/09/30 11:19:07;;;;;;;7.68;1.45;;;;;;;;;;5061822;28;20223;-80
2021/09/30 11:21:34;;;;;;;2.53;1.00;;;;;;;;;;4987472;28;20190;-83
2021/09/30 11:24:01;;;;;;;2.33;0.80;;;;;;;;;;4969942;28;20184;-83
2021/09/30 11:26:29;;;;;;;2.90;1.30;;;;;;;;;;4966593;28;20223;-81
2021/09/30 11:29:15;;;;;;;3.40;0.98;;;;;;;;;;4983464;28;20247;-83
2021/09/30 11:31:41;;;;;;;2.15;0.95;;;;;;;;;;4982356;28;20194;-82
2021/09/30 11:34:07;;;;;;;3.50;1.10;;;;;;;;;;4985740;28;20192;-82
2021/09/30 11:36:34;;;;;;;3.70;0.90;;;;;;;;;;4985878;28;20497;-81
2021/09/30 11:39:00;;;;;;;2.03;1.00;;;;;;;;;;4984192;28;20220;-81
2021/09/30 11:41:29;;;;;;;2.65;1.05;;;;;;;;;;4968815;28;20187;-81
2021/09/30 11:43:55;;;;;;;3.72;0.90;;;;;;;;;;4982774;28;20180;-81
2021/09/30 11:46:25;;;;;;;4.22;1.20;;;;;;;;;;4967495;28;20189;-81
2021/09/30 11:48:55;;;;;;;2.40;1.00;;;;;;;;;;4988262;28;20183;-81
2021/09/30 11:51:28;;;;;;;4.70;1.17;;;;;;;;;;4985154;28;20240;-82
2021/09/30 11:53:54;;;;;;;2.40;0.95;;;;;;;;;;5062764;28;20217;-81
2021/09/30 11:56:20;;;;;;;4.15;1.00;;;;;;;;;;5060062;28;20673;-81
2021/09/30 11:58:58;;;;;;;5.57;0.90;;;;;;;;;;5053540;28;20205;-82
2021/09/30 12:01:37;;;;;;;3.63;1.05;;;;;;;;;;5054981;28;20447;-82
2021/09/30 12:04:04;;;;;;;2.40;1.00;;;;;;;;;;5070722;28;20207;-82
2021/09/30 12:06:40;;;;;;;1.90;0.93;;;;;;;;;;5057469;28;20744;-82
2021/09/30 12:09:07;;;;;;;1.20;1.00;;;;;;;;;;5061037;28;20196;-83
2021/09/30 12:11:35;;;;;;;2.78;0.88;;;;;;;;;;5067062;28;20196;-83
2021/09/30 12:14:01;;;;;;;2.70;0.90;;;;;;;;;;5056330;28;20191;-82
2021/09/30 12:16:27;;;;;;;3.08;1.40;;;;;;;;;;5051163;28;20185;-82
2021/09/30 12:18:59;;;;;;;3.10;1.17;;;;;;;;;;5069046;28;20213;-81
2021/09/30 12:21:39;;;;;;;3.92;1.13;;;;;;;;;;5061616;28;20188;-83
2021/09/30 12:24:08;;;;;;;1.08;0.70;;;;;;;;;;5064621;28;20190;-83
2021/09/30 12:26:37;;;;;;;1.83;1.17;;;;;;;;;;5066114;28;20264;-83
2021/09/30 12:29:06;;;;;;;2.80;1.10;;;;;;;;;;5065362;28;20449;-82
2021/09/30 12:31:32;;;;;;;2.60;0.93;;;;;;;;;;5050075;28;20419;-83
2021/09/30 12:33:58;;;;;;;3.80;1.20;;;;;;;;;;5067192;28;20416;-83
2021/09/30 12:36:24;;;;;;;9.40;1.23;;;;;;;;;;5059749;28;20498;-82
2021/09/30 12:38:58;;;;;;;2.93;1.17;;;;;;;;;;5066002;28;20468;-82
2021/09/30 12:41:24;;;;;;;3.63;1.00;;;;;;;;;;5066471;28;20467;-82
2021/09/30 12:43:50;;;;;;;1.53;1.00;;;;;;;;;;5050920;28;20525;-82
2021/09/30 12:46:19;;;;;;;1.80;1.13;;;;;;;;;;5065785;28;20436;-81
2021/09/30 12:48:49;;;;;;;4.20;1.13;;;;;;;;;;5059298;28;20441;-82
2021/09/30 12:51:16;;;;;;;2.13;1.00;;;;;;;;;;5071136;28;20936;-81
2021/09/30 12:53:51;;;;;;;1.73;0.93;;;;;;;;;;5061771;28;20504;-82
2021/09/30 12:56:22;;;;;;;1.60;0.87;;;;;;;;;;5056093;28;20464;-82
2021/09/30 12:58:49;;;;;;;2.83;1.13;;;;;;;;;;5058533;28;20438;-79
2021/09/30 13:01:21;;;;;;;3.07;1.17;;;;;;;;;;5061553;28;20474;-80
2021/09/30 13:04:02;;;;;;;1.90;1.20;;;;;;;;;;5059883;28;20459;-80
2021/09/30 13:06:28;;;;;;;2.80;1.67;;;;;;;;;;5055038;28;20856;-82
2021/09/30 13:08:54;;;;;;;1.70;1.17;;;;;;;;;;5059490;28;20494;-82
2021/09/30 13:11:29;;;;;;;1.90;1.23;;;;;;;;;;5057109;28;20818;-81
2021/09/30 13:14:14;;;;;;;1.90;0.90;;;;;;;;;;5064379;28;20447;-83
2021/09/30 13:16:44;;;;;;;3.00;1.03;;;;;;;;;;5057058;28;20835;-83
2021/09/30 13:19:11;;;;;;;3.80;1.10;;;;;;;;;;5065503;28;20538;-81
2021/09/30 13:21:56;;;;;;;2.30;1.70;;;;;;;;;;5060188;28;20401;-80
2021/09/30 13:24:22;;;;;;;2.07;1.00;;;;;;;;;;5063518;28;20934;-81
2021/09/30 13:26:48;;;;;;;3.17;1.27;;;;;;;;;;5070071;28;20484;-82
2021/09/30 13:29:14;;;;;;;3.13;1.10;;;;;;;;;;5051314;28;20938;-81
2021/09/30 13:31:40;;;;;;;1.97;0.80;;;;;;;;;;5058445;28;20451;-82
2021/09/30 13:34:06;;;;;;;2.77;1.13;;;;;;;;;;5056445;28;20444;-82
2021/09/30 13:36:32;;;;;;;4.20;1.30;;;;;;;;;;5064283;28;20442;-82
2021/09/30 13:39:00;;;;;;;3.50;0.90;;;;;;;;;;5059214;28;20488;-83
2021/09/30 13:41:26;;;;;;;2.40;1.10;;;;;;;;;;5053761;28;20438;-83
2021/09/30 13:43:52;;;;;;;2.70;1.37;;;;;;;;;;5058900;28;20421;-82
2021/09/30 13:46:19;;;;;;;4.43;1.50;;;;;;;;;;5059275;28;20397;-83
2021/09/30 13:48:45;;;;;;;2.20;1.23;;;;;;;;;;5056898;28;20415;-83
2021/09/30 13:51:11;;;;;;;1.43;0.90;;;;;;;;;;5060489;28;20860;-80
2021/09/30 13:53:37;;;;;;;2.60;1.30;;;;;;;;;;5063809;28;20458;-83
2021/09/30 13:56:03;;;;;;;2.03;0.90;;;;;;;;;;5062741;28;20462;-80
2021/09/30 13:58:32;;;;;;;3.17;1.10;;;;;;;;;;5050971;28;20477;-82
2021/09/30 14:00:58;;;;;;;2.00;1.10;;;;;;;;;;5057921;28;20427;-82
2021/09/30 14:03:24;;;;;;;3.27;1.10;;;;;;;;;;5060842;28;20431;-82
2021/09/30 14:05:50;;;;;;;5.27;1.10;;;;;;;;;;5058661;28;20435;-84
2021/09/30 14:08:18;;;;;;;1.87;1.07;;;;;;;;;;5046151;28;20432;-83
2021/09/30 14:10:44;;;;;;;2.10;0.97;;;;;;;;;;5047979;28;20459;-84
2021/09/30 14:13:11;;;;;;;5.03;1.57;;;;;;;;;;5054986;28;20413;-83
2021/09/30 14:15:37;;;;;;;4.27;1.50;;;;;;;;;;5065665;28;20435;-83
2021/09/30 14:18:03;;;;;;;3.50;1.20;;;;;;;;;;5063092;28;20491;-83
2021/09/30 14:20:29;;;;;;;2.13;1.47;;;;;;;;;;5064801;28;20520;-83
2021/09/30 14:22:55;;;;;;;4.40;1.10;;;;;;;;;;5062528;28;20432;-82
2021/09/30 14:25:21;;;;;;;2.23;0.80;;;;;;;;;;5062195;28;20455;-83
2021/09/30 14:27:47;;;;;;;3.27;1.47;;;;;;;;;;5064401;28;20707;-84
2021/09/30 14:30:13;;;;;;;2.60;1.27;;;;;;;;;;5063011;28;20792;-85
2021/09/30 14:32:39;;;;;;;2.70;1.13;;;;;;;;;;5061619;28;20424;-85
2021/09/30 14:35:06;;;;;;;2.87;1.10;;;;;;;;;;5062991;28;21283;-84
2021/09/30 14:37:32;;;;;;;4.20;1.10;;;;;;;;;;5049527;28;20457;-83
2021/09/30 14:39:58;;;;;;;2.23;1.10;;;;;;;;;;5052417;28;20469;-83
2021/09/30 14:42:24;;;;;;;2.60;1.27;;;;;;;;;;5042315;28;20438;-83
2021/09/30 14:44:50;;;;;;;3.60;1.40;;;;;;;;;;5031180;28;20542;-83
2021/09/30 14:47:16;;;;;;;3.73;1.20;;;;;;;;;;5031418;28;20406;-83
2021/09/30 14:49:42;;;;;;;1.80;1.20;;;;;;;;;;5015475;28;20444;-84
2021/09/30 14:52:09;;;;;;;2.72;2.08;;;;;;;;;;5033466;28;20398;-84
2021/09/30 14:54:35;;;;;;;5.22;1.40;;;;;;;;;;5028821;28;20183;-83
2021/09/30 14:57:01;;;;;;;3.53;1.50;;;;;;;;;;5027244;28;20182;-83
2021/09/30 14:59:27;;;;;;;3.88;1.88;;;;;;;;;;5031257;28;20276;-83
2021/09/30 15:01:53;;;;;;;5.20;3.13;;;;;;;;;;5028918;28;20180;-83
2021/09/30 15:04:19;;;;;;;5.07;2.50;;;;;;;;;;5047188;28;20428;-83
2021/09/30 15:06:45;;;;;;;6.38;3.10;;;;;;;;;;5043908;28;20183;-83
2021/09/30 15:09:11;;;;;;;7.40;3.37;;;;;;;;;;5025867;28;20187;-83
2021/09/30 15:11:38;;;;;;;5.80;3.05;;;;;;;;;;5023111;28;20446;-82
2021/09/30 15:14:07;;;;;;;4.57;1.95;;;;;;;;;;5034855;28;20192;-83
2021/09/30 15:16:36;;;;;;;2.72;1.50;;;;;;;;;;5026149;28;20210;-84
2021/09/30 15:19:17;;;;;;;4.88;1.40;;;;;;;;;;5026085;28;20218;-84
2021/09/30 15:21:43;;;;;;;3.40;1.30;;;;;;;;;;5031292;28;20182;-84
2021/09/30 15:24:10;;;;;;;2.35;1.60;;;;;;;;;;5027468;28;20461;-83
2021/09/30 15:26:36;;;;;;;3.88;1.30;;;;;;;;;;5031211;28;20277;-83
2021/09/30 15:29:03;;;;;;;6.37;1.33;;;;;;;;;;5029348;28;20678;-82
2021/09/30 15:31:30;;;;;;;3.30;1.20;;;;;;;;;;5035591;28;20398;-83
2021/09/30 15:33:58;;;;;;;6.05;1.33;;;;;;;;;;5030803;28;20167;-84
2021/09/30 15:36:24;;;;;;;2.75;1.13;;;;;;;;;;5031416;28;20636;-84
2021/09/30 15:38:53;;;;;;;4.32;1.20;;;;;;;;;;5035652;28;20296;-83
2021/09/30 15:41:19;;;;;;;2.55;1.23;;;;;;;;;;5057898;28;20279;-82
2021/09/30 15:43:46;;;;;;;2.23;0.90;;;;;;;;;;5059898;28;20652;-81
2021/09/30 15:46:12;;;;;;;4.85;1.35;;;;;;;;;;5068082;28;20426;-82
2021/09/30 15:48:38;;;;;;;4.35;1.38;;;;;;;;;;5078885;28;20188;-82
2021/09/30 15:51:05;;;;;;;3.70;1.00;;;;;;;;;;5055584;28;20189;-82
2021/09/30 15:53:31;;;;;;;3.53;0.85;;;;;;;;;;5065595;28;20445;-81
2021/09/30 15:55:57;;;;;;;2.78;1.10;;;;;;;;;;5063133;28;20181;-81
2021/09/30 15:58:24;;;;;;;2.03;0.90;;;;;;;;;;5056134;28;20201;-82
2021/09/30 16:00:50;;;;;;;1.17;1.10;;;;;;;;;;5062044;28;20189;-82
2021/09/30 16:03:16;;;;;;;1.85;0.90;;;;;;;;;;5064860;28;20181;-82
2021/09/30 16:05:42;;;;;;;3.30;1.00;;;;;;;;;;5068245;28;20184;-82
2021/09/30 16:08:08;;;;;;;3.22;1.20;;;;;;;;;;5056462;28;20185;-82
2021/09/30 16:10:34;;;;;;;2.75;1.23;;;;;;;;;;5061130;28;20207;-82
2021/09/30 16:13:01;;;;;;;2.10;1.40;;;;;;;;;;5056548;28;20173;-82
2021/09/30 16:15:27;;;;;;;5.70;1.38;;;;;;;;;;5050920;28;20451;-82
2021/09/30 16:17:53;;;;;;;2.55;1.38;;;;;;;;;;5066551;28;20536;-84
2021/09/30 16:20:19;;;;;;;3.07;1.50;;;;;;;;;;5066220;28;20188;-83
2021/09/30 16:22:45;;;;;;;2.93;1.03;;;;;;;;;;5050200;28;20429;-84
2021/09/30 16:25:11;;;;;;;2.45;1.30;;;;;;;;;;5063782;28;20432;-84
2021/09/30 16:27:38;;;;;;;3.40;1.25;;;;;;;;;;5063511;28;20173;-83
2021/09/30 16:30:06;;;;;;;2.28;1.08;;;;;;;;;;5055723;28;20228;-85
2021/09/30 16:32:32;;;;;;;1.45;1.20;;;;;;;;;;5060746;28;20646;-84
2021/09/30 16:34:58;;;;;;;2.45;0.90;;;;;;;;;;5051563;28;20187;-83
2021/09/30 16:37:24;;;;;;;4.90;1.30;;;;;;;;;;5060865;28;20205;-84
2021/09/30 16:39:50;;;;;;;1.50;0.98;;;;;;;;;;5035523;28;20226;-83
2021/09/30 16:42:16;;;;;;;3.30;1.00;;;;;;;;;;5023749;28;20189;-82
2021/09/30 16:44:42;;;;;;;3.85;0.90;;;;;;;;;;5037415;28;20193;-83
2021/09/30 16:47:08;;;;;;;6.35;1.45;;;;;;;;;;5019145;28;20204;-83
2021/09/30 16:49:34;;;;;;;1.53;0.90;;;;;;;;;;5022164;28;20209;-83
2021/09/30 16:52:01;;;;;;;2.28;1.02;;;;;;;;;;5026781;28;20422;-83
2021/09/30 16:54:27;;;;;;;1.38;0.90;;;;;;;;;;5023925;28;20187;-83
2021/09/30 16:56:53;;;;;;;1.85;1.15;;;;;;;;;;5023860;28;20599;-82
2021/09/30 16:59:19;;;;;;;2.00;1.20;;;;;;;;;;5022347;28;20627;-83
2021/09/30 17:01:45;;;;;;;1.45;0.88;;;;;;;;;;5013952;28;20185;-83
2021/09/30 17:04:11;;;;;;;2.15;1.00;;;;;;;;;;5027250;28;20183;-83
2021/09/30 17:06:38;;;;;;;1.65;1.00;;;;;;;;;;5015403;28;20213;-83
2021/09/30 17:09:04;;;;;;;3.33;1.45;;;;;;;;;;5020239;28;20221;-84
2021/09/30 17:11:30;;;;;;;1.73;1.10;;;;;;;;;;5027564;28;20639;-83
2021/09/30 17:13:56;;;;;;;4.53;1.73;;;;;;;;;;5028153;28;20197;-82
2021/09/30 17:16:23;;;;;;;2.65;1.20;;;;;;;;;;5028819;28;20174;-82
2021/09/30 17:18:49;;;;;;;1.40;0.95;;;;;;;;;;5047219;28;20194;-83
2021/09/30 17:21:17;;;;;;;4.90;1.27;;;;;;;;;;5029611;28;20192;-82
2021/09/30 17:23:43;;;;;;;4.15;1.10;;;;;;;;;;5045013;28;20443;-81
2021/09/30 17:26:09;;;;;;;4.32;1.40;;;;;;;;;;5024597;28;20257;-82
2021/09/30 17:28:35;;;;;;;1.20;1.02;;;;;;;;;;5017809;28;20553;-82
2021/09/30 17:31:01;;;;;;;2.10;1.10;;;;;;;;;;5021257;28;20170;-83
2021/09/30 17:33:28;;;;;;;4.80;1.80;;;;;;;;;;5028087;28;20185;-83
2021/09/30 17:35:54;;;;;;;6.85;2.65;;;;;;;;;;5042928;28;20535;-83
2021/09/30 17:38:20;;;;;;;2.72;1.20;;;;;;;;;;5024372;28;20205;-83